createdAt,value
2023-02-09T00:00:16.284Z,6.90
2023-02-09T00:03:21.677Z,6.80
2023-02-09T00:05:59.107Z,5.63
2023-02-09T00:08:28.309Z,6.85
2023-02-09T00:10:59.850Z,6.15
2023-02-09T00:13:31.823Z,6.57
2023-02-09T00:16:05.637Z,6.47
2023-02-09T00:18:36.020Z,7.10
2023-02-09T00:21:15.217Z,6.82
2023-02-09T00:23:45.487Z,6.55
2023-02-09T00:26:14.069Z,7.30
2023-02-09T00:28:53.305Z,7.47
2023-02-09T00:31:21.917Z,5.97
2023-02-09T00:34:24.221Z,5.97
2023-02-09T00:36:56.828Z,6.85
2023-02-09T00:39:28.039Z,7.32
2023-02-09T00:42:13.605Z,6.97
2023-02-09T00:44:49.872Z,7.43
2023-02-09T00:47:42.248Z,6.75
2023-02-09T00:50:13.892Z,6.80
2023-02-09T00:55:41.352Z,6.88
2023-02-09T00:58:12.269Z,6.93
2023-02-09T01:00:49.653Z,6.63
2023-02-09T01:03:18.058Z,6.90
2023-02-09T01:05:46.140Z,6.90
2023-02-09T01:08:19.157Z,6.53
2023-02-09T01:10:50.367Z,5.90
2023-02-09T01:13:28.109Z,6.35
2023-02-09T01:16:33.452Z,6.40
2023-02-09T01:19:28.653Z,5.25
2023-02-09T01:22:03.208Z,5.15
2023-02-09T01:24:43.314Z,5.75
2023-02-09T01:27:22.586Z,4.45
2023-02-09T01:29:59.939Z,4.60
2023-02-09T01:33:05.241Z,4.93
2023-02-09T01:35:53.910Z,5.10
2023-02-09T01:38:27.076Z,5.22
2023-02-09T01:41:01.071Z,4.07
2023-02-09T01:43:29.810Z,4.47
2023-02-09T01:46:00.147Z,4.50
2023-02-09T01:48:50.160Z,3.75
2023-02-09T01:51:25.902Z,3.78
2023-02-09T01:53:54.818Z,3.78
2023-02-09T01:57:04.172Z,4.25
2023-02-09T02:00:17.236Z,4.18
2023-02-09T02:03:07.097Z,3.97
2023-02-09T02:05:55.870Z,4.30
2023-02-09T02:08:54.982Z,4.85
2023-02-09T02:12:08.147Z,5.55
2023-02-09T02:18:43.783Z,6.43
2023-02-09T02:27:52.781Z,5.82
2023-02-09T02:30:45.114Z,6.22
2023-02-09T02:40:32.629Z,5.45
2023-02-09T02:43:42.752Z,4.97
2023-02-09T02:46:42.964Z,4.90
2023-02-09T03:08:00.366Z,5.28
2023-02-09T03:14:10.762Z,4.50
2023-02-09T03:19:50.348Z,4.97
2023-02-09T03:32:40.454Z,6.00
2023-02-09T09:23:54.630Z,7.85
2023-02-09T09:29:42.105Z,9.07
2023-02-09T09:35:48.525Z,9.10
2023-02-09T09:38:18.070Z,8.73
2023-02-09T09:40:56.428Z,9.13
2023-02-09T09:43:44.661Z,8.63
2023-02-09T09:46:17.913Z,9.20
2023-02-09T09:48:47.297Z,8.73
2023-02-09T09:51:26.636Z,8.15
2023-02-09T09:54:04.641Z,9.23
2023-02-09T09:56:33.960Z,8.95
2023-02-09T09:59:02.374Z,8.35
2023-02-09T10:01:32.653Z,8.13
2023-02-09T10:04:29.650Z,8.70
2023-02-09T10:07:01.943Z,7.90
2023-02-09T10:09:46.390Z,7.43
2023-02-09T10:12:35.148Z,8.15
2023-02-09T10:15:23.550Z,8.60
2023-02-09T10:17:52.646Z,8.65
2023-02-09T10:20:40.151Z,7.97
2023-02-09T10:23:18.171Z,7.65
2023-02-09T10:26:09.275Z,8.00
2023-02-09T10:28:40.499Z,9.65
2023-02-09T10:31:20.935Z,9.60
2023-02-09T10:34:18.899Z,8.82
2023-02-09T10:37:12.123Z,7.22
2023-02-09T10:39:40.103Z,9.10
2023-02-09T10:42:28.645Z,8.68
2023-02-09T10:44:58.057Z,8.43
2023-02-09T10:47:29.598Z,8.57
2023-02-09T10:50:34.705Z,8.50
2023-02-09T10:53:05.597Z,7.78
2023-02-09T10:56:10.302Z,9.05
2023-02-09T10:59:00.269Z,7.80
2023-02-09T11:01:43.129Z,7.15
2023-02-09T11:04:25.660Z,7.57
2023-02-09T11:07:13.698Z,8.52
2023-02-09T11:09:58.447Z,7.80
2023-02-09T11:12:34.784Z,7.85
2023-02-09T11:15:13.417Z,7.80
2023-02-09T11:21:23.467Z,6.38
2023-02-09T11:27:16.622Z,6.82
2023-02-09T11:30:22.643Z,7.30
2023-02-09T11:33:13.487Z,7.03
2023-02-09T11:35:41.304Z,8.13
2023-02-09T11:38:24.341Z,7.53
2023-02-09T11:41:21.179Z,7.22
2023-02-09T11:44:06.213Z,7.05
2023-02-09T11:46:40.880Z,7.70
2023-02-09T11:49:19.049Z,7.15
2023-02-09T11:51:51.965Z,6.10
2023-02-09T11:54:31.316Z,6.60
2023-02-09T11:57:07.059Z,6.00
2023-02-09T11:59:54.170Z,6.65
2023-02-09T12:02:26.840Z,6.90
2023-02-09T12:05:28.772Z,6.88
2023-02-09T12:08:08.890Z,6.50
2023-02-09T12:11:01.757Z,7.82
2023-02-09T12:13:34.074Z,6.15
2023-02-09T12:16:25.413Z,6.93
2023-02-09T12:19:14.763Z,6.95
2023-02-09T12:21:51.024Z,7.07
2023-02-09T12:24:44.780Z,6.65
2023-02-09T12:27:31.701Z,8.00
2023-02-09T12:30:18.479Z,6.53
2023-02-09T12:32:50.399Z,6.95
2023-02-09T12:35:45.096Z,7.40
2023-02-09T12:38:42.330Z,7.80
2023-02-09T12:41:21.686Z,6.78
2023-02-09T12:43:50.641Z,5.80
2023-02-09T12:46:31.269Z,7.00
2023-02-09T12:49:26.977Z,7.45
2023-02-09T12:51:57.034Z,6.68
2023-02-09T12:54:43.789Z,6.25
2023-02-09T12:57:24.026Z,7.22
2023-02-09T13:00:00.944Z,6.47
2023-02-09T13:02:40.825Z,6.22
2023-02-09T13:05:16.946Z,7.05
2023-02-09T13:07:52.957Z,6.85
2023-02-09T13:10:39.441Z,5.72
2023-02-09T13:13:37.189Z,5.63
2023-02-09T13:16:29.956Z,6.07
2023-02-09T13:19:21.692Z,5.90
2023-02-09T13:27:34.499Z,6.25
2023-02-09T13:30:03.712Z,5.57
2023-02-09T13:36:06.904Z,5.68
2023-02-09T13:38:36.948Z,5.88
2023-02-09T13:41:07.514Z,5.22
2023-02-09T13:43:48.478Z,5.70
2023-02-09T13:46:48.508Z,5.72
2023-02-09T13:49:24.817Z,5.90
2023-02-09T13:52:16.574Z,5.50
2023-02-09T13:57:41.038Z,5.20
2023-02-09T14:00:40.757Z,5.75
2023-02-09T14:03:57.425Z,5.45
2023-02-09T14:06:35.117Z,5.70
2023-02-09T14:09:06.266Z,5.50
2023-02-09T14:11:58.563Z,6.50
2023-02-09T14:14:55.708Z,5.22
2023-02-09T14:17:36.318Z,5.57
2023-02-09T14:20:05.293Z,5.13
2023-02-09T14:22:38.715Z,5.90
2023-02-09T14:25:41.701Z,5.75
2023-02-09T14:28:15.911Z,5.72
2023-02-09T14:30:51.872Z,5.88
2023-02-09T14:33:26.268Z,5.80
2023-02-09T14:36:01.164Z,5.53
2023-02-09T14:38:48.527Z,6.05
2023-02-09T14:41:33.054Z,5.65
2023-02-09T14:44:09.856Z,5.70
2023-02-09T14:47:00.638Z,5.80
2023-02-09T14:49:40.519Z,5.13
2023-02-09T14:52:14.952Z,6.07
2023-02-09T14:54:49.761Z,5.45
2023-02-09T14:57:21.490Z,5.70
2023-02-09T14:59:49.713Z,6.57
2023-02-09T15:02:21.801Z,6.25
2023-02-09T15:04:51.604Z,6.07
2023-02-09T15:07:21.482Z,6.13
2023-02-09T15:10:06.954Z,5.60
2023-02-09T15:12:46.017Z,6.13
2023-02-09T15:15:19.852Z,6.60
2023-02-09T15:17:58.768Z,5.70
2023-02-09T15:20:38.823Z,6.00
2023-02-09T15:23:07.512Z,5.30
2023-02-09T15:25:41.172Z,5.75
2023-02-09T15:28:13.162Z,5.70
2023-02-09T15:30:44.259Z,6.35
2023-02-09T15:35:58.081Z,5.75
2023-02-09T15:38:35.383Z,5.47
2023-02-09T15:41:28.992Z,6.25
2023-02-09T15:44:57.295Z,5.50
2023-02-09T15:47:44.816Z,7.10
2023-02-09T15:50:13.908Z,7.57
2023-02-09T15:52:47.155Z,7.93
2023-02-09T15:55:21.179Z,6.10
2023-02-09T15:57:54.825Z,5.88
2023-02-09T16:00:26.257Z,5.95
2023-02-09T16:05:22.781Z,6.00
2023-02-09T16:07:57.834Z,4.93
2023-02-09T16:10:33.582Z,6.05
2023-02-09T16:13:15.478Z,5.63
2023-02-09T16:16:07.995Z,5.38
2023-02-09T16:18:45.331Z,4.88
2023-02-09T16:21:23.592Z,4.88
2023-02-09T16:24:00.630Z,5.20
2023-02-09T16:26:30.297Z,5.80
2023-02-09T16:28:58.283Z,5.90
2023-02-09T16:31:30.930Z,5.20
2023-02-09T16:34:00.124Z,5.35
2023-02-09T16:36:30.377Z,4.78
2023-02-09T16:38:59.570Z,5.43
2023-02-09T16:41:51.171Z,5.20
2023-02-09T16:44:25.590Z,5.63
2023-02-09T16:46:57.267Z,6.00
2023-02-09T16:49:40.827Z,5.60
2023-02-09T16:52:31.630Z,8.10
2023-02-09T16:55:02.295Z,9.10
2023-02-09T16:57:31.284Z,8.27
2023-02-09T17:00:00.420Z,8.63
2023-02-09T17:02:45.768Z,9.18
2023-02-09T17:05:28.625Z,9.23
2023-02-09T17:08:03.924Z,9.40
2023-02-09T17:13:40.707Z,10.07
2023-02-09T17:16:24.485Z,11.00
2023-02-09T17:18:55.868Z,10.32
2023-02-09T17:21:44.405Z,10.75
2023-02-09T17:30:25.511Z,10.20
2023-02-09T17:58:09.284Z,9.75
2023-02-09T18:00:58.564Z,9.00
2023-02-09T18:12:23.797Z,8.13
2023-02-09T18:18:15.158Z,8.23
2023-02-09T18:21:12.322Z,9.00
2023-02-09T18:24:18.210Z,8.77
2023-02-09T18:29:48.237Z,8.73
2023-02-09T18:32:17.679Z,9.77
2023-02-09T18:34:46.553Z,9.00
2023-02-09T18:37:27.105Z,10.75
2023-02-09T18:39:56.223Z,8.70
2023-02-09T18:42:32.573Z,8.35
2023-02-09T18:45:00.410Z,8.02
2023-02-09T18:47:30.090Z,8.05
2023-02-09T18:50:04.172Z,8.20
2023-02-09T18:52:32.297Z,8.05
2023-02-09T18:55:09.409Z,9.07
2023-02-09T18:57:37.607Z,9.10
2023-02-09T19:00:06.972Z,8.80
2023-02-09T19:02:42.128Z,8.20
2023-02-09T19:05:11.552Z,7.47
2023-02-09T19:07:52.217Z,7.85
2023-02-09T19:10:23.190Z,9.07
2023-02-09T19:12:52.347Z,8.27
2023-02-09T19:15:30.105Z,8.38
2023-02-09T19:18:01.278Z,7.70
2023-02-09T19:20:32.062Z,8.43
2023-02-09T19:23:00.129Z,8.20
2023-02-09T19:25:31.027Z,8.15
2023-02-09T19:28:07.987Z,6.95
2023-02-09T19:30:48.109Z,15.73
2023-02-09T19:33:25.207Z,9.00
2023-02-09T19:36:11.681Z,7.30
2023-02-09T19:38:50.773Z,6.80
2023-02-09T19:41:56.693Z,7.93
2023-02-09T19:44:29.945Z,8.27
2023-02-09T19:47:00.800Z,7.68
2023-02-09T19:49:33.336Z,8.07
2023-02-09T19:52:08.528Z,8.25
2023-02-09T19:55:05.541Z,6.95
2023-02-09T19:58:20.225Z,7.60
2023-02-09T20:00:53.752Z,7.55
2023-02-09T20:03:24.865Z,7.28
2023-02-09T20:05:53.270Z,7.50
2023-02-09T20:08:21.165Z,7.32
2023-02-09T20:10:54.081Z,7.78
2023-02-09T20:13:28.252Z,6.78
2023-02-09T20:15:57.504Z,6.32
2023-02-09T20:18:33.675Z,5.95
2023-02-09T20:21:04.048Z,5.72
2023-02-09T20:23:32.099Z,6.43
2023-02-09T20:26:03.684Z,5.93
2023-02-09T20:31:08.728Z,6.15
2023-02-09T20:33:40.259Z,6.10
2023-02-09T20:39:12.102Z,6.13
2023-02-09T20:42:02.112Z,5.53
2023-02-09T20:45:04.034Z,6.57
2023-02-09T20:50:16.285Z,5.43
2023-02-09T20:52:46.965Z,4.80
2023-02-09T20:55:19.702Z,4.60
2023-02-09T20:57:47.429Z,4.55
2023-02-09T21:00:18.882Z,3.75
2023-02-09T21:05:21.274Z,4.00
2023-02-09T21:07:51.564Z,4.28
2023-02-09T21:10:19.596Z,3.95
2023-02-09T21:12:48.840Z,3.65
2023-02-09T21:15:22.960Z,3.65
2023-02-09T21:18:01.462Z,3.92
2023-02-09T21:20:36.042Z,3.63
2023-02-09T21:23:06.177Z,4.43
2023-02-09T21:25:43.297Z,5.15
2023-02-09T21:28:12.376Z,5.53
2023-02-09T21:30:47.662Z,5.28
2023-02-09T21:33:17.739Z,7.22
2023-02-09T21:35:49.636Z,7.13
2023-02-09T21:38:42.764Z,6.35
2023-02-09T21:41:35.303Z,7.55
2023-02-09T21:44:05.710Z,7.82
2023-02-09T21:46:35.816Z,6.72
2023-02-09T21:49:25.985Z,5.60
2023-02-09T21:52:15.963Z,7.50
2023-02-09T21:54:51.761Z,6.95
2023-02-09T21:57:33.047Z,6.80
2023-02-09T22:00:10.225Z,6.15
2023-02-09T22:02:41.835Z,7.47
2023-02-09T22:05:29.816Z,6.50
2023-02-09T22:08:18.368Z,6.50
2023-02-09T22:10:47.240Z,6.45
2023-02-09T22:13:18.377Z,6.47
2023-02-09T22:15:49.367Z,5.93
2023-02-09T22:18:18.318Z,6.03
2023-02-09T22:20:53.682Z,5.70
2023-02-09T22:23:28.674Z,5.40
2023-02-09T22:26:01.000Z,5.50
2023-02-09T22:28:36.522Z,6.05
2023-02-09T22:31:29.481Z,5.35
2023-02-09T22:33:59.638Z,5.30
2023-02-09T22:36:50.170Z,5.80
2023-02-09T22:39:22.135Z,5.50
2023-02-09T22:42:18.041Z,5.55
2023-02-09T22:45:04.286Z,5.75
2023-02-09T22:47:35.263Z,6.72
2023-02-09T22:50:03.289Z,7.53
2023-02-09T22:52:43.657Z,7.78
2023-02-09T22:55:11.394Z,8.23
2023-02-09T22:57:39.319Z,7.22
2023-02-09T23:00:11.277Z,6.93
2023-02-09T23:02:41.475Z,6.53
2023-02-09T23:05:16.665Z,4.93
2023-02-09T23:07:46.586Z,5.97
2023-02-09T23:10:23.746Z,5.32
2023-02-09T23:13:07.976Z,5.18
2023-02-09T23:15:47.290Z,4.90
2023-02-09T23:18:15.523Z,4.85
2023-02-09T23:20:45.408Z,4.30
2023-02-09T23:23:13.164Z,5.20
2023-02-09T23:25:41.160Z,5.20
2023-02-09T23:28:09.197Z,4.72
2023-02-09T23:30:39.037Z,5.40
2023-02-09T23:33:07.010Z,5.05
2023-02-09T23:35:35.087Z,5.00
2023-02-09T23:38:09.124Z,5.10
2023-02-09T23:40:42.168Z,5.05
2023-02-09T23:43:25.321Z,4.65
2023-02-09T23:45:53.625Z,4.50
2023-02-09T23:48:24.868Z,4.95
2023-02-09T23:50:52.955Z,5.03
2023-02-09T23:53:29.486Z,4.40
2023-02-09T23:56:07.457Z,4.32
2023-02-09T23:58:40.484Z,4.53
